Time;durP1;ratioP1;P1;durP2;ratioP2;P2;SDS_P1;SDS_P2;PMS_P1;PMS_P2;Temp;Humidity;BMP_temperature;BMP_pressure;BME280_temperature;BME280_humidity;BME280_pressure;Samples;Min_cycle;Max_cycle;Signal;HPM_P1;HPM_P2
2024/04/25 05:14:59;;;;;;;;;;;;;;;;;;5446683;26;19925;-42
2024/04/25 05:17:25;;;;;;;;;;;;;;;;;;5445556;26;19944;-42
2024/04/25 05:19:51;;;;;;;;;;;;;;;;;;5447458;26;19940;-43
2024/04/25 05:22:17;;;;;;;;;;;;;;;;;;5450842;26;19933;-43
2024/04/25 05:24:43;;;;;;;;;;;;;;;;;;5452178;26;19932;-42
2024/04/25 05:27:08;;;;;;;;;;;;;;;;;;5453320;26;19943;-42
2024/04/25 05:29:34;;;;;;;;;;;;;;;;;;5451324;26;19932;-42
2024/04/25 05:32:00;;;;;;;;;;;;;;;;;;5449783;26;20319;-42
2024/04/25 05:34:26;;;;;;;;;;;;;;;;;;5451950;26;20360;-42
2024/04/25 05:36:52;;;;;;;;;;;;;;;;;;5448117;26;19928;-42
2024/04/25 05:39:18;;;;;;;;;;;;;;;;;;5427801;26;19928;-41
2024/04/25 05:41:44;;;;;;;;;;;;;;;;;;5450913;26;19928;-42
2024/04/25 05:44:10;;;;;;;;;;;;;;;;;;5449627;26;19932;-42
2024/04/25 05:46:36;;;;;;;;;;;;;;;;;;5452648;26;19935;-42
2024/04/25 05:49:02;;;;;;;;;;;;;;;;;;5451121;26;19928;-44
2024/04/25 05:51:28;;;;;;;;;;;;;;;;;;5488984;26;20385;-44
2024/04/25 05:53:53;;;;;;;;;;;;;;;;;;5480020;26;20541;-42
2024/04/25 05:56:19;;;;;;;;;;;;;;;;;;5450712;26;19932;-42
2024/04/25 05:58:48;;;;;;;;;;;;;;;;;;5448976;26;19934;-42
2024/04/25 06:01:17;;;;;;;;;;;;;;;;;;5447123;26;19956;-42
2024/04/25 06:03:43;;;;;;;;;;;;;;;;;;5451841;26;19933;-42
2024/04/25 06:06:09;;;;;;;;;;;;;;;;;;5450848;26;20364;-42
2024/04/25 06:08:35;;;;;;;;;;;;;;;;;;5452150;26;19929;-43
2024/04/25 06:11:01;;;;;;;;;;;;;;;;;;5452651;26;19937;-43
2024/04/25 06:13:27;;;;;;;;;;;;;;;;;;5450028;26;20376;-43
2024/04/25 06:15:52;;;;;;;;;;;;;;;;;;5450507;26;19935;-43
2024/04/25 06:18:18;;;;;;;;;;;;;;;;;;5449770;26;20010;-42
2024/04/25 06:20:44;;;;;;;;;;;;;;;;;;5452249;26;19977;-43
2024/04/25 06:23:10;;;;;;;;;;;;;;;;;;5452230;26;19937;-43
2024/04/25 06:25:36;;;;;;;;;;;;;;;;;;5449364;26;20447;-43
2024/04/25 06:28:02;;;;;;;;;;;;;;;;;;5451031;26;20438;-42
2024/04/25 06:30:28;;;;;;;;;;;;;;;;;;5448914;26;19929;-42
2024/04/25 06:32:54;;;;;;;;;;;;;;;;;;5451689;26;19936;-42
2024/04/25 06:35:20;;;;;;;;;;;;;;;;;;5450720;26;20001;-43
2024/04/25 06:37:46;;;;;;;;;;;;;;;;;;5451613;26;20331;-43
2024/04/25 06:40:12;;;;;;;;;;;;;;;;;;5448068;26;19936;-43
2024/04/25 06:42:37;;;;;;;;;;;;;;;;;;5473810;26;20376;-43
2024/04/25 06:45:03;;;;;;;;;;;;;;;;;;5488549;26;19939;-43
2024/04/25 06:47:29;;;;;;;;;;;;;;;;;;5458254;26;19937;-42
2024/04/25 06:49:55;;;;;;;;;;;;;;;;;;5449689;26;20316;-42
2024/04/25 06:52:21;;;;;;;;;;;;;;;;;;5445519;26;19928;-43
2024/04/25 06:54:47;;;;;;;;;;;;;;;;;;5451300;26;19972;-43
2024/04/25 06:57:13;;;;;;;;;;;;;;;;;;5451942;26;19932;-43
2024/04/25 06:59:39;;;;;;;;;;;;;;;;;;5451820;26;19929;-45
2024/04/25 07:02:06;;;;;;;;;;;;;;;;;;5452030;26;19940;-43
2024/04/25 07:04:32;;;;;;;;;;;;;;;;;;5420282;26;20265;-43
2024/04/25 07:06:58;;;;;;;;;;;;;;;;;;5451997;26;19997;-45
2024/04/25 07:09:24;;;;;;;;;;;;;;;;;;5451751;26;20027;-44
2024/04/25 07:11:50;;;;;;;;;;;;;;;;;;5451807;26;19940;-43
2024/04/25 07:14:16;;;;;;;;;;;;;;;;;;5451633;26;20551;-43
2024/04/25 07:16:42;;;;;;;;;;;;;;;;;;5451569;26;19928;-44
2024/04/25 07:19:08;;;;;;;;;;;;;;;;;;5451407;26;19935;-42
2024/04/25 07:21:35;;;;;;;;;;;;;;;;;;5451415;26;19936;-45
2024/04/25 07:24:03;;;;;;;;;;;;;;;;;;5451336;26;19977;-42
2024/04/25 07:26:28;;;;;;;;;;;;;;;;;;5451294;26;19928;-42
2024/04/25 07:28:56;;;;;;;;;;;;;;;;;;5451171;26;19928;-43
2024/04/25 07:31:21;;;;;;;;;;;;;;;;;;5451228;26;19933;-44
2024/04/25 07:33:47;;;;;;;;;;;;;;;;;;5450284;26;19940;-43
2024/04/25 07:36:13;;;;;;;;;;;;;;;;;;5451584;26;19935;-42
2024/04/25 07:38:39;;;;;;;;;;;;;;;;;;5450792;26;19943;-42
2024/04/25 07:41:05;;;;;;;;;;;;;;;;;;5451915;26;19928;-42
2024/04/25 07:43:31;;;;;;;;;;;;;;;;;;5418767;26;19928;-43
2024/04/25 07:45:57;;;;;;;;;;;;;;;;;;5451223;26;19937;-43
2024/04/25 07:48:23;;;;;;;;;;;;;;;;;;5451440;26;19932;-42
2024/04/25 07:50:48;;;;;;;;;;;;;;;;;;5450890;26;20389;-43
2024/04/25 07:53:14;;;;;;;;;;;;;;;;;;5450721;26;19944;-44
2024/04/25 07:55:40;;;;;;;;;;;;;;;;;;5450869;26;19960;-43
2024/04/25 07:58:06;;;;;;;;;;;;;;;;;;5451323;26;20019;-43
2024/04/25 08:00:32;;;;;;;;;;;;;;;;;;5451090;26;19935;-43
2024/04/25 08:02:58;;;;;;;;;;;;;;;;;;5450564;26;20388;-44
2024/04/25 08:05:24;;;;;;;;;;;;;;;;;;5450636;26;19997;-43
2024/04/25 08:07:50;;;;;;;;;;;;;;;;;;5450970;26;19936;-43
2024/04/25 08:10:16;;;;;;;;;;;;;;;;;;5450862;26;19932;-42
2024/04/25 08:12:43;;;;;;;;;;;;;;;;;;5450795;26;19939;-41
2024/04/25 08:15:09;;;;;;;;;;;;;;;;;;5450907;26;19936;-42
2024/04/25 08:17:36;;;;;;;;;;;;;;;;;;5450899;26;19962;-42
2024/04/25 08:20:02;;;;;;;;;;;;;;;;;;5450158;26;19932;-42
2024/04/25 08:22:30;;;;;;;;;;;;;;;;;;5450905;26;19970;-41
2024/04/25 08:24:56;;;;;;;;;;;;;;;;;;5450599;26;19940;-41
2024/04/25 08:27:22;;;;;;;;;;;;;;;;;;5450892;26;20434;-42
2024/04/25 08:29:48;;;;;;;;;;;;;;;;;;5449524;26;19936;-41
2024/04/25 08:32:14;;;;;;;;;;;;;;;;;;5450670;26;19935;-42
2024/04/25 08:34:39;;;;;;;;;;;;;;;;;;5450612;26;19996;-42
2024/04/25 08:37:05;;;;;;;;;;;;;;;;;;5449939;26;19934;-42
2024/04/25 08:39:31;;;;;;;;;;;;;;;;;;5450444;26;19960;-42
2024/04/25 08:41:58;;;;;;;;;;;;;;;;;;5450562;26;19945;-43
2024/04/25 08:44:23;;;;;;;;;;;;;;;;;;5450333;26;20001;-43
2024/04/25 08:46:49;;;;;;;;;;;;;;;;;;5450374;26;20397;-42
2024/04/25 08:49:16;;;;;;;;;;;;;;;;;;5450287;26;19929;-42
2024/04/25 08:51:41;;;;;;;;;;;;;;;;;;5450374;26;19937;-42
2024/04/25 08:54:07;;;;;;;;;;;;;;;;;;5450335;26;19993;-43
2024/04/25 08:56:33;;;;;;;;;;;;;;;;;;5451749;26;19929;-42
2024/04/25 08:58:59;;;;;;;;;;;;;;;;;;5452821;26;19929;-42
2024/04/25 09:01:25;;;;;;;;;;;;;;;;;;5453708;26;19936;-42
2024/04/25 09:03:51;;;;;;;;;;;;;;;;;;5453222;26;19933;-42
2024/04/25 09:06:17;;;;;;;;;;;;;;;;;;5453537;26;20369;-42
2024/04/25 09:08:43;;;;;;;;;;;;;;;;;;5453954;26;19928;-42
2024/04/25 09:11:09;;;;;;;;;;;;;;;;;;5452977;26;19937;-42
2024/04/25 09:13:35;;;;;;;;;;;;;;;;;;5453344;26;19996;-42
2024/04/25 09:16:01;;;;;;;;;;;;;;;;;;5453180;26;19935;-44
2024/04/25 09:18:28;;;;;;;;;;;;;;;;;;5452774;26;19936;-44
2024/04/25 09:20:53;;;;;;;;;;;;;;;;;;5452807;26;19997;-42
2024/04/25 09:23:19;;;;;;;;;;;;;;;;;;5453338;26;19928;-43
2024/04/25 09:25:45;;;;;;;;;;;;;;;;;;5452872;26;19933;-43
2024/04/25 09:28:11;;;;;;;;;;;;;;;;;;5453538;26;19940;-42
2024/04/25 09:30:37;;;;;;;;;;;;;;;;;;5452988;26;19932;-42
2024/04/25 09:33:07;;;;;;;;;;;;;;;;;;5452712;26;19932;-42
2024/04/25 09:35:32;;;;;;;;;;;;;;;;;;5453089;26;19928;-42
2024/04/25 09:37:58;;;;;;;;;;;;;;;;;;5453127;26;19936;-43
2024/04/25 09:40:24;;;;;;;;;;;;;;;;;;5452409;26;20038;-42
2024/04/25 09:42:50;;;;;;;;;;;;;;;;;;5453083;26;19935;-42
2024/04/25 09:45:16;;;;;;;;;;;;;;;;;;5452902;26;19929;-42
2024/04/25 09:47:42;;;;;;;;;;;;;;;;;;5452865;26;19935;-43
2024/04/25 09:50:11;;;;;;;;;;;;;;;;;;5452734;26;19928;-43
2024/04/25 09:52:37;;;;;;;;;;;;;;;;;;5452163;26;20373;-43
2024/04/25 09:55:06;;;;;;;;;;;;;;;;;;5453168;26;19929;-43
2024/04/25 09:57:32;;;;;;;;;;;;;;;;;;5452456;26;19977;-42
2024/04/25 09:59:59;;;;;;;;;;;;;;;;;;5452793;26;20001;-43
2024/04/25 10:02:25;;;;;;;;;;;;;;;;;;5452598;26;19993;-44
2024/04/25 10:04:51;;;;;;;;;;;;;;;;;;5452557;26;19941;-43
2024/04/25 10:07:17;;;;;;;;;;;;;;;;;;5452231;26;19929;-42
2024/04/25 10:09:43;;;;;;;;;;;;;;;;;;5452849;26;19934;-42
2024/04/25 10:12:08;;;;;;;;;;;;;;;;;;5451973;26;20270;-43
2024/04/25 10:14:34;;;;;;;;;;;;;;;;;;5451795;26;19998;-43
2024/04/25 10:17:00;;;;;;;;;;;;;;;;;;5452184;26;20397;-44
2024/04/25 10:19:26;;;;;;;;;;;;;;;;;;5452265;26;19928;-43
2024/04/25 10:21:52;;;;;;;;;;;;;;;;;;5451889;26;20390;-44
2024/04/25 10:24:18;;;;;;;;;;;;;;;;;;5452346;26;19929;-42
2024/04/25 10:26:44;;;;;;;;;;;;;;;;;;5452434;26;19929;-42
2024/04/25 10:29:10;;;;;;;;;;;;;;;;;;5452331;26;19928;-45
2024/04/25 10:31:36;;;;;;;;;;;;;;;;;;5452198;26;19932;-44
2024/04/25 10:34:01;;;;;;;;;;;;;;;;;;5452403;26;19964;-43
2024/04/25 10:36:27;;;;;;;;;;;;;;;;;;5452079;26;19933;-44
2024/04/25 10:38:53;;;;;;;;;;;;;;;;;;5452014;26;20392;-42
2024/04/25 10:41:19;;;;;;;;;;;;;;;;;;5452047;26;19929;-42
2024/04/25 10:43:46;;;;;;;;;;;;;;;;;;5452569;26;19929;-42
2024/04/25 10:46:11;;;;;;;;;;;;;;;;;;5451244;26;19929;-43
2024/04/25 10:48:37;;;;;;;;;;;;;;;;;;5451555;26;19928;-43
2024/04/25 10:51:03;;;;;;;;;;;;;;;;;;5451030;26;20401;-43
2024/04/25 10:53:29;;;;;;;;;;;;;;;;;;5451941;26;20359;-42
2024/04/25 10:55:55;;;;;;;;;;;;;;;;;;5451753;26;19978;-44
2024/04/25 10:58:21;;;;;;;;;;;;;;;;;;5451565;26;20381;-44
2024/04/25 11:00:47;;;;;;;;;;;;;;;;;;5452480;26;19936;-45
2024/04/25 11:03:13;;;;;;;;;;;;;;;;;;5446173;26;20378;-42
2024/04/25 11:05:39;;;;;;;;;;;;;;;;;;5447762;26;19936;-43
2024/04/25 11:08:05;;;;;;;;;;;;;;;;;;5451783;26;19960;-42
2024/04/25 11:10:31;;;;;;;;;;;;;;;;;;5450512;26;20394;-45
2024/04/25 11:12:58;;;;;;;;;;;;;;;;;;5447529;26;19939;-44
2024/04/25 11:15:26;;;;;;;;;;;;;;;;;;5451762;26;19969;-45
2024/04/25 11:17:52;;;;;;;;;;;;;;;;;;5449917;26;19928;-43
2024/04/25 11:20:18;;;;;;;;;;;;;;;;;;5446516;26;20005;-44
2024/04/25 11:22:43;;;;;;;;;;;;;;;;;;5445763;26;19935;-43
2024/04/25 11:25:09;;;;;;;;;;;;;;;;;;5449692;26;19929;-42
2024/04/25 11:27:35;;;;;;;;;;;;;;;;;;5447676;26;19941;-43
2024/04/25 11:30:01;;;;;;;;;;;;;;;;;;5450218;26;20571;-44
2024/04/25 11:32:27;;;;;;;;;;;;;;;;;;5449338;26;19929;-43
2024/04/25 11:34:53;;;;;;;;;;;;;;;;;;5447416;26;19941;-44
2024/04/25 11:37:19;;;;;;;;;;;;;;;;;;5449104;26;20257;-44
2024/04/25 11:39:45;;;;;;;;;;;;;;;;;;5451504;26;19946;-44
2024/04/25 11:42:10;;;;;;;;;;;;;;;;;;5451106;26;20374;-44
2024/04/25 11:44:36;;;;;;;;;;;;;;;;;;5446997;26;19929;-44
2024/04/25 11:47:02;;;;;;;;;;;;;;;;;;5444526;26;19936;-45
2024/04/25 11:49:28;;;;;;;;;;;;;;;;;;5432275;26;19929;-44
2024/04/25 11:51:55;;;;;;;;;;;;;;;;;;5434276;26;20275;-46
2024/04/25 11:54:21;;;;;;;;;;;;;;;;;;5451372;26;20553;-44
2024/04/25 11:56:46;;;;;;;;;;;;;;;;;;5451146;26;19940;-45
2024/04/25 11:59:12;;;;;;;;;;;;;;;;;;5448104;26;19933;-45
2024/04/25 12:01:38;;;;;;;;;;;;;;;;;;5448912;26;20326;-46
2024/04/25 12:04:08;;;;;;;;;;;;;;;;;;5448325;26;19929;-47
2024/04/25 12:06:33;;;;;;;;;;;;;;;;;;5448660;26;19946;-47
2024/04/25 12:08:59;;;;;;;;;;;;;;;;;;5449583;26;20362;-46
2024/04/25 12:11:25;;;;;;;;;;;;;;;;;;5449075;26;19929;-44
2024/04/25 12:13:51;;;;;;;;;;;;;;;;;;5450715;26;19933;-49
2024/04/25 12:16:17;;;;;;;;;;;;;;;;;;5449833;26;19974;-45
2024/04/25 12:18:43;;;;;;;;;;;;;;;;;;5443892;26;19989;-48
2024/04/25 12:21:09;;;;;;;;;;;;;;;;;;5449291;26;19928;-49
2024/04/25 12:23:35;;;;;;;;;;;;;;;;;;5449425;26;19928;-46
2024/04/25 12:26:01;;;;;;;;;;;;;;;;;;5443836;26;19932;-45
2024/04/25 12:28:27;;;;;;;;;;;;;;;;;;5448825;26;19940;-46
2024/04/25 12:30:53;;;;;;;;;;;;;;;;;;5448808;26;19941;-47
2024/04/25 12:33:18;;;;;;;;;;;;;;;;;;5448409;26;19936;-47
2024/04/25 12:35:44;;;;;;;;;;;;;;;;;;5450008;26;19935;-48
2024/04/25 12:38:10;;;;;;;;;;;;;;;;;;5448915;26;20294;-48
2024/04/25 12:40:36;;;;;;;;;;;;;;;;;;5447724;26;19928;-49
2024/04/25 12:43:03;;;;;;;;;;;;;;;;;;5448585;26;19933;-48
2024/04/25 12:45:33;;;;;;;;;;;;;;;;;;5448513;26;19929;-46
2024/04/25 12:47:59;;;;;;;;;;;;;;;;;;5449836;26;19928;-46
2024/04/25 12:50:25;;;;;;;;;;;;;;;;;;5449896;26;19929;-47
2024/04/25 12:52:51;;;;;;;;;;;;;;;;;;5448809;26;19966;-48
2024/04/25 12:55:17;;;;;;;;;;;;;;;;;;5398387;26;19957;-50
2024/04/25 12:57:43;;;;;;;;;;;;;;;;;;5447083;26;19935;-47
2024/04/25 13:00:08;;;;;;;;;;;;;;;;;;5422615;26;19997;-47
2024/04/25 13:02:34;;;;;;;;;;;;;;;;;;5426654;26;19943;-45
2024/04/25 13:05:00;;;;;;;;;;;;;;;;;;5449273;26;19939;-47
2024/04/25 13:07:26;;;;;;;;;;;;;;;;;;5448424;26;20332;-46
2024/04/25 13:09:52;;;;;;;;;;;;;;;;;;5440542;26;19943;-49
2024/04/25 13:12:18;;;;;;;;;;;;;;;;;;5444783;26;19955;-49
2024/04/25 13:14:44;;;;;;;;;;;;;;;;;;5445014;26;19941;-47
2024/04/25 13:17:10;;;;;;;;;;;;;;;;;;5438196;26;19936;-48
2024/04/25 13:19:35;;;;;;;;;;;;;;;;;;5448690;26;19937;-49
2024/04/25 13:22:05;;;;;;;;;;;;;;;;;;5439274;26;19929;-48
2024/04/25 13:24:30;;;;;;;;;;;;;;;;;;5437570;26;19929;-45
2024/04/25 13:26:56;;;;;;;;;;;;;;;;;;5449025;26;20381;-47
2024/04/25 13:29:22;;;;;;;;;;;;;;;;;;5440064;26;19928;-49
2024/04/25 13:31:48;;;;;;;;;;;;;;;;;;5447415;26;19937;-47
2024/04/25 13:34:16;;;;;;;;;;;;;;;;;;5448436;26;19935;-49
2024/04/25 13:36:42;;;;;;;;;;;;;;;;;;5417159;26;19928;-47
2024/04/25 13:39:09;;;;;;;;;;;;;;;;;;5409849;26;19979;-44
2024/04/25 13:41:34;;;;;;;;;;;;;;;;;;5444802;26;20366;-45
2024/04/25 13:44:00;;;;;;;;;;;;;;;;;;5424975;26;19941;-48
2024/04/25 13:46:28;;;;;;;;;;;;;;;;;;5452053;26;19939;-43
2024/04/25 13:48:54;;;;;;;;;;;;;;;;;;5452350;26;19936;-46
2024/04/25 13:51:20;;;;;;;;;;;;;;;;;;5450843;26;19928;-48
2024/04/25 13:53:46;;;;;;;;;;;;;;;;;;5448994;26;20380;-46
2024/04/25 13:56:12;;;;;;;;;;;;;;;;;;5451875;26;19941;-50
2024/04/25 13:58:38;;;;;;;;;;;;;;;;;;5450447;26;20354;-50
2024/04/25 14:01:04;;;;;;;;;;;;;;;;;;5452133;26;19929;-48
2024/04/25 14:03:29;;;;;;;;;;;;;;;;;;5450507;26;19928;-47
2024/04/25 14:05:56;;;;;;;;;;;;;;;;;;5449961;26;19929;-48
2024/04/25 14:08:22;;;;;;;;;;;;;;;;;;5451329;26;19932;-47
2024/04/25 14:10:49;;;;;;;;;;;;;;;;;;5442198;26;19928;-45
2024/04/25 14:13:15;;;;;;;;;;;;;;;;;;5452017;26;20298;-45
2024/04/25 14:15:41;;;;;;;;;;;;;;;;;;5445358;26;19932;-47
2024/04/25 14:18:07;;;;;;;;;;;;;;;;;;5468444;26;19929;-48
2024/04/25 14:20:34;;;;;;;;;;;;;;;;;;5451291;26;20262;-46
2024/04/25 14:23:02;;;;;;;;;;;;;;;;;;5448292;26;19955;-46
2024/04/25 14:30:58;;;;;;;;;;;;;;;;;;5448650;26;19993;-51
2024/04/25 14:33:24;;;;;;;;;;;;;;;;;;5449144;26;19928;-50
2024/04/25 14:35:50;;;;;;;;;;;;;;;;;;5432707;26;19929;-52
2024/04/25 14:38:16;;;;;;;;;;;;;;;;;;5446667;26;19932;-53
2024/04/25 14:40:42;;;;;;;;;;;;;;;;;;5430944;26;19939;-52
2024/04/25 14:43:08;;;;;;;;;;;;;;;;;;5442625;26;19978;-51
2024/04/25 14:45:34;;;;;;;;;;;;;;;;;;5448735;26;19929;-49
2024/04/25 14:48:00;;;;;;;;;;;;;;;;;;5417899;26;20002;-53
2024/04/25 14:50:26;;;;;;;;;;;;;;;;;;5439329;26;19948;-52
2024/04/25 14:52:52;;;;;;;;;;;;;;;;;;5448823;26;19928;-50
2024/04/25 14:55:18;;;;;;;;;;;;;;;;;;5442240;26;19936;-52
2024/04/25 14:57:43;;;;;;;;;;;;;;;;;;5447707;26;19929;-52
2024/04/25 15:00:09;;;;;;;;;;;;;;;;;;5447543;26;19929;-51
2024/04/25 15:02:35;;;;;;;;;;;;;;;;;;5447430;26;19939;-53
2024/04/25 15:05:01;;;;;;;;;;;;;;;;;;5449126;26;19940;-52
2024/04/25 15:07:27;;;;;;;;;;;;;;;;;;5449145;26;19928;-51
2024/04/25 15:09:53;;;;;;;;;;;;;;;;;;5444314;26;19932;-53
2024/04/25 15:12:19;;;;;;;;;;;;;;;;;;5418573;26;19933;-49
2024/04/25 15:14:47;;;;;;;;;;;;;;;;;;5448525;26;19936;-53
2024/04/25 15:17:13;;;;;;;;;;;;;;;;;;5417651;26;19935;-51
2024/04/25 15:19:44;;;;;;;;;;;;;;;;;;5447758;26;20366;-53
2024/04/25 15:22:10;;;;;;;;;;;;;;;;;;5450329;26;19997;-53
2024/04/25 15:24:36;;;;;;;;;;;;;;;;;;5432344;26;19939;-50
2024/04/25 15:27:02;;;;;;;;;;;;;;;;;;5450048;26;19932;-52
2024/04/25 15:29:28;;;;;;;;;;;;;;;;;;5450918;26;19929;-52
2024/04/25 15:31:54;;;;;;;;;;;;;;;;;;5449325;26;20004;-52
2024/04/25 15:34:19;;;;;;;;;;;;;;;;;;5449599;26;19928;-52
2024/04/25 15:36:45;;;;;;;;;;;;;;;;;;5448813;26;19936;-50
2024/04/25 15:39:11;;;;;;;;;;;;;;;;;;5449538;26;19929;-49
2024/04/25 15:41:37;;;;;;;;;;;;;;;;;;5442323;26;19935;-53
2024/04/25 15:44:03;;;;;;;;;;;;;;;;;;5409551;26;19928;-51
2024/04/25 15:46:29;;;;;;;;;;;;;;;;;;5450379;26;19928;-52
2024/04/25 15:48:55;;;;;;;;;;;;;;;;;;5450396;26;19998;-52
2024/04/25 15:51:21;;;;;;;;;;;;;;;;;;5449009;26;19943;-52
2024/04/25 15:53:46;;;;;;;;;;;;;;;;;;5450074;26;19929;-53
2024/04/25 15:56:12;;;;;;;;;;;;;;;;;;5449764;26;19936;-49
2024/04/25 15:58:38;;;;;;;;;;;;;;;;;;5450095;26;20389;-53
2024/04/25 16:01:04;;;;;;;;;;;;;;;;;;5417818;26;19936;-51
2024/04/25 16:03:30;;;;;;;;;;;;;;;;;;5449926;26;20371;-50
2024/04/25 16:05:56;;;;;;;;;;;;;;;;;;5449432;26;20363;-52
2024/04/25 16:08:22;;;;;;;;;;;;;;;;;;5449144;26;19978;-51
2024/04/25 16:10:48;;;;;;;;;;;;;;;;;;5449876;26;19936;-52
2024/04/25 16:13:14;;;;;;;;;;;;;;;;;;5449379;26;19932;-51
2024/04/25 16:15:39;;;;;;;;;;;;;;;;;;5449251;26;19940;-53
2024/04/25 16:18:05;;;;;;;;;;;;;;;;;;5449342;26;19933;-48
2024/04/25 16:20:31;;;;;;;;;;;;;;;;;;5449544;26;19929;-47
2024/04/25 16:22:57;;;;;;;;;;;;;;;;;;5450093;26;19928;-52
2024/04/25 16:25:23;;;;;;;;;;;;;;;;;;5417128;26;20017;-48
2024/04/25 16:27:49;;;;;;;;;;;;;;;;;;5449685;26;19941;-52
2024/04/25 16:30:15;;;;;;;;;;;;;;;;;;5449281;26;19940;-53
2024/04/25 16:32:41;;;;;;;;;;;;;;;;;;5449352;26;19978;-47
2024/04/25 16:35:06;;;;;;;;;;;;;;;;;;5417451;26;20378;-48
2024/04/25 16:37:32;;;;;;;;;;;;;;;;;;5417823;26;19928;-47
2024/04/25 16:39:59;;;;;;;;;;;;;;;;;;5449772;26;20277;-53
2024/04/25 16:42:25;;;;;;;;;;;;;;;;;;5448821;26;19928;-50
2024/04/25 16:44:52;;;;;;;;;;;;;;;;;;5448938;26;20367;-49
2024/04/25 16:47:18;;;;;;;;;;;;;;;;;;5448684;26;19956;-51
2024/04/25 16:49:44;;;;;;;;;;;;;;;;;;5449419;26;20292;-51
2024/04/25 16:52:10;;;;;;;;;;;;;;;;;;5448549;26;19936;-51
2024/04/25 16:54:36;;;;;;;;;;;;;;;;;;5449276;26;20354;-52
2024/04/25 16:57:02;;;;;;;;;;;;;;;;;;5449435;26;19928;-51
2024/04/25 16:59:28;;;;;;;;;;;;;;;;;;5417483;26;19936;-52
2024/04/25 17:01:53;;;;;;;;;;;;;;;;;;5449015;26;19937;-50
2024/04/25 17:04:19;;;;;;;;;;;;;;;;;;5417056;26;19928;-49
2024/04/25 17:06:50;;;;;;;;;;;;;;;;;;5448570;26;19936;-52
2024/04/25 17:09:16;;;;;;;;;;;;;;;;;;5448492;26;19992;-50
2024/04/25 17:11:42;;;;;;;;;;;;;;;;;;5417237;26;20343;-52
2024/04/25 17:14:08;;;;;;;;;;;;;;;;;;5448413;26;19928;-51
2024/04/25 17:16:34;;;;;;;;;;;;;;;;;;5448726;26;20255;-51
2024/04/25 17:19:00;;;;;;;;;;;;;;;;;;5452642;26;19965;-51
2024/04/25 17:21:26;;;;;;;;;;;;;;;;;;5451883;26;20397;-49
2024/04/25 17:23:55;;;;;;;;;;;;;;;;;;5452174;26;19929;-49
2024/04/25 17:26:21;;;;;;;;;;;;;;;;;;5420216;26;20506;-48
2024/04/25 17:28:47;;;;;;;;;;;;;;;;;;5452330;26;19997;-49
2024/04/25 17:31:12;;;;;;;;;;;;;;;;;;5419618;26;19940;-50
2024/04/25 17:33:38;;;;;;;;;;;;;;;;;;5451891;26;20034;-48
2024/04/25 17:36:04;;;;;;;;;;;;;;;;;;5451967;26;19928;-53
2024/04/25 17:38:30;;;;;;;;;;;;;;;;;;5451968;26;19929;-51
2024/04/25 17:40:56;;;;;;;;;;;;;;;;;;5452088;26;19936;-52
2024/04/25 17:43:22;;;;;;;;;;;;;;;;;;5419370;26;19997;-50
2024/04/25 17:45:48;;;;;;;;;;;;;;;;;;5452498;26;19928;-52
2024/04/25 17:48:15;;;;;;;;;;;;;;;;;;5451633;26;19928;-50
2024/04/25 17:50:41;;;;;;;;;;;;;;;;;;5451953;26;20495;-51
2024/04/25 17:53:07;;;;;;;;;;;;;;;;;;5450985;26;19955;-50
2024/04/25 17:55:33;;;;;;;;;;;;;;;;;;5452250;26;19932;-51
2024/04/25 17:57:58;;;;;;;;;;;;;;;;;;5420047;26;19932;-52
2024/04/25 18:00:24;;;;;;;;;;;;;;;;;;5451009;26;20407;-51
2024/04/25 18:02:53;;;;;;;;;;;;;;;;;;5451623;26;19928;-48
2024/04/25 18:05:19;;;;;;;;;;;;;;;;;;5451176;26;19932;-50
2024/04/25 18:07:45;;;;;;;;;;;;;;;;;;5451641;26;19940;-53
2024/04/25 18:10:11;;;;;;;;;;;;;;;;;;5451378;26;19929;-53
2024/04/25 18:12:36;;;;;;;;;;;;;;;;;;5419791;26;19929;-49
2024/04/25 18:15:02;;;;;;;;;;;;;;;;;;5452044;26;19928;-51
2024/04/25 18:17:28;;;;;;;;;;;;;;;;;;5451227;26;19936;-49
2024/04/25 18:19:55;;;;;;;;;;;;;;;;;;5451620;26;19956;-49
2024/04/25 18:22:24;;;;;;;;;;;;;;;;;;5419275;26;20307;-51
2024/04/25 18:24:50;;;;;;;;;;;;;;;;;;5451763;26;19928;-53
2024/04/25 18:27:16;;;;;;;;;;;;;;;;;;5449392;26;19929;-48
2024/04/25 18:29:42;;;;;;;;;;;;;;;;;;5446948;26;19929;-51
2024/04/25 18:32:08;;;;;;;;;;;;;;;;;;5448304;26;20023;-52
2024/04/25 18:34:34;;;;;;;;;;;;;;;;;;5447512;26;19943;-53
2024/04/25 18:37:00;;;;;;;;;;;;;;;;;;5454577;26;20346;-52
2024/04/25 18:39:26;;;;;;;;;;;;;;;;;;5487208;26;19928;-50
2024/04/25 18:41:52;;;;;;;;;;;;;;;;;;5426309;26;20394;-49
2024/04/25 18:44:18;;;;;;;;;;;;;;;;;;5446719;26;19997;-52
2024/04/25 18:46:44;;;;;;;;;;;;;;;;;;5445815;26;19936;-51
2024/04/25 18:49:09;;;;;;;;;;;;;;;;;;5443622;26;19928;-52
2024/04/25 18:51:35;;;;;;;;;;;;;;;;;;5447057;26;19940;-51
2024/04/25 18:54:01;;;;;;;;;;;;;;;;;;5451163;26;19997;-49
2024/04/25 18:56:27;;;;;;;;;;;;;;;;;;5446955;26;19940;-50
2024/04/25 18:58:54;;;;;;;;;;;;;;;;;;5448454;26;19928;-49
2024/04/25 19:01:20;;;;;;;;;;;;;;;;;;5442768;26;19928;-50
2024/04/25 19:03:46;;;;;;;;;;;;;;;;;;5448525;26;19936;-49
2024/04/25 19:06:11;;;;;;;;;;;;;;;;;;5449475;26;19932;-50
2024/04/25 19:08:37;;;;;;;;;;;;;;;;;;5449566;26;19935;-49
2024/04/25 19:11:03;;;;;;;;;;;;;;;;;;5448888;26;19952;-51
2024/04/25 19:13:29;;;;;;;;;;;;;;;;;;5451084;26;19935;-51
2024/04/25 19:15:55;;;;;;;;;;;;;;;;;;5451266;26;19935;-51
2024/04/25 19:18:24;;;;;;;;;;;;;;;;;;5448664;26;19936;-52
2024/04/25 19:20:51;;;;;;;;;;;;;;;;;;5444311;26;19962;-49
2024/04/25 19:23:16;;;;;;;;;;;;;;;;;;5415105;26;19935;-52
2024/04/25 19:25:42;;;;;;;;;;;;;;;;;;5447595;26;19929;-48
2024/04/25 19:28:08;;;;;;;;;;;;;;;;;;5441605;26;19928;-50
2024/04/25 19:30:34;;;;;;;;;;;;;;;;;;5452170;26;19972;-49
2024/04/25 19:33:00;;;;;;;;;;;;;;;;;;5444417;26;19937;-53
2024/04/25 19:35:26;;;;;;;;;;;;;;;;;;5473343;26;19928;-50
2024/04/25 19:37:54;;;;;;;;;;;;;;;;;;5482126;26;19936;-48
2024/04/25 19:40:20;;;;;;;;;;;;;;;;;;5446419;26;19932;-52
2024/04/25 19:42:46;;;;;;;;;;;;;;;;;;5447972;26;20001;-52
2024/04/25 19:45:12;;;;;;;;;;;;;;;;;;5447348;26;19929;-51
2024/04/25 19:47:38;;;;;;;;;;;;;;;;;;5446514;26;19937;-51
2024/04/25 19:50:04;;;;;;;;;;;;;;;;;;5448314;26;20266;-50
2024/04/25 19:52:30;;;;;;;;;;;;;;;;;;5422284;26;19928;-51
2024/04/25 19:54:56;;;;;;;;;;;;;;;;;;5467477;26;19929;-52
2024/04/25 19:57:23;;;;;;;;;;;;;;;;;;5414643;26;20246;-52
2024/04/25 19:59:49;;;;;;;;;;;;;;;;;;5416090;26;19928;-49
2024/04/25 20:02:18;;;;;;;;;;;;;;;;;;5448604;26;19935;-52
2024/04/25 20:04:44;;;;;;;;;;;;;;;;;;5414958;26;19928;-49
2024/04/25 20:07:10;;;;;;;;;;;;;;;;;;5446639;26;19935;-51
2024/04/25 20:09:36;;;;;;;;;;;;;;;;;;5414352;26;20365;-51
2024/04/25 20:12:02;;;;;;;;;;;;;;;;;;5449247;26;19928;-51
2024/04/25 20:14:28;;;;;;;;;;;;;;;;;;5449484;26;19940;-51
2024/04/25 20:16:54;;;;;;;;;;;;;;;;;;5434337;26;19928;-49
2024/04/25 20:22:05;;;;;;;;;;;;;;;;;;5445974;26;20407;-51
2024/04/25 20:24:31;;;;;;;;;;;;;;;;;;5449777;26;19936;-52
2024/04/25 20:26:57;;;;;;;;;;;;;;;;;;5416885;26;19997;-48
2024/04/25 20:29:25;;;;;;;;;;;;;;;;;;5414645;26;19934;-49
2024/04/25 20:31:51;;;;;;;;;;;;;;;;;;5444010;26;19928;-50
2024/04/25 20:34:19;;;;;;;;;;;;;;;;;;5447977;26;19932;-49
2024/04/25 20:36:45;;;;;;;;;;;;;;;;;;5442621;26;19957;-52
2024/04/25 20:39:11;;;;;;;;;;;;;;;;;;5412970;26;19928;-51
2024/04/25 20:41:37;;;;;;;;;;;;;;;;;;5413578;26;19929;-50
2024/04/25 20:44:02;;;;;;;;;;;;;;;;;;5430368;26;19997;-48
2024/04/25 20:46:28;;;;;;;;;;;;;;;;;;5446766;26;19974;-47
2024/04/25 20:48:55;;;;;;;;;;;;;;;;;;5446246;26;19929;-52
2024/04/25 20:51:22;;;;;;;;;;;;;;;;;;5446454;26;19928;-51
2024/04/25 20:53:47;;;;;;;;;;;;;;;;;;5415714;26;19964;-51
2024/04/25 20:56:13;;;;;;;;;;;;;;;;;;5442442;26;20001;-50
2024/04/25 20:58:40;;;;;;;;;;;;;;;;;;5447877;26;19936;-53
2024/04/25 21:01:05;;;;;;;;;;;;;;;;;;5448531;26;19933;-52
2024/04/25 21:03:31;;;;;;;;;;;;;;;;;;5422629;26;19942;-52
2024/04/25 21:05:57;;;;;;;;;;;;;;;;;;5456579;26;19936;-50
2024/04/25 21:08:23;;;;;;;;;;;;;;;;;;5447429;26;19928;-51
2024/04/25 21:10:49;;;;;;;;;;;;;;;;;;5448430;26;20366;-51
2024/04/25 21:13:15;;;;;;;;;;;;;;;;;;5448661;26;19929;-49
2024/04/25 21:15:41;;;;;;;;;;;;;;;;;;5448692;26;19935;-49
2024/04/25 21:18:08;;;;;;;;;;;;;;;;;;5445894;26;20216;-51
2024/04/25 21:20:34;;;;;;;;;;;;;;;;;;5443616;26;20439;-52
2024/04/25 21:23:00;;;;;;;;;;;;;;;;;;5446798;26;19935;-50
2024/04/25 21:25:26;;;;;;;;;;;;;;;;;;5444927;26;20269;-51
2024/04/25 21:27:53;;;;;;;;;;;;;;;;;;5444874;26;19935;-48
2024/04/25 21:30:18;;;;;;;;;;;;;;;;;;5443657;26;20275;-52
2024/04/25 21:32:44;;;;;;;;;;;;;;;;;;5442567;26;20379;-48
2024/04/25 21:35:10;;;;;;;;;;;;;;;;;;5448432;26;19936;-50
2024/04/25 21:37:36;;;;;;;;;;;;;;;;;;5447193;26;19936;-52
2024/04/25 21:40:02;;;;;;;;;;;;;;;;;;5446289;26;19992;-49
2024/04/25 21:42:28;;;;;;;;;;;;;;;;;;5447644;26;19964;-50
2024/04/25 21:44:54;;;;;;;;;;;;;;;;;;5447844;26;19932;-52
2024/04/25 21:47:20;;;;;;;;;;;;;;;;;;5447911;26;20188;-50
2024/04/25 21:49:46;;;;;;;;;;;;;;;;;;5448354;26;19935;-48
2024/04/25 21:52:12;;;;;;;;;;;;;;;;;;5416284;26;19928;-52
2024/04/25 21:54:38;;;;;;;;;;;;;;;;;;5448224;26;19929;-51
2024/04/25 21:57:03;;;;;;;;;;;;;;;;;;5448170;26;19976;-49
2024/04/25 21:59:29;;;;;;;;;;;;;;;;;;5448244;26;19929;-51